Time;durP1;ratioP1;P1;durP2;ratioP2;P2;SDS_P1;SDS_P2;PMS_P1;PMS_P2;Temp;Humidity;BMP_temperature;BMP_pressure;BME280_temperature;BME280_humidity;BME280_pressure;Samples;Min_cycle;Max_cycle;Signal;HPM_P1;HPM_P2
2023/08/27 00:02:38;;;;;;;27.40;16.67;;;;;;;12.11;100.00;100920.44;10434302;28;20046;-72
2023/08/27 00:07:38;;;;;;;23.40;15.23;;;;;;;12.13;100.00;100914.66;10437780;28;20037;-72
2023/08/27 00:12:39;;;;;;;23.38;14.40;;;;;;;12.16;100.00;100906.69;10440709;28;20037;-72
2023/08/27 00:17:39;;;;;;;21.52;15.23;;;;;;;12.14;100.00;100902.56;10438386;28;20044;-72
2023/08/27 00:22:40;;;;;;;22.13;15.10;;;;;;;12.11;100.00;100901.13;10440590;28;20044;-72
2023/08/27 00:27:40;;;;;;;23.17;14.77;;;;;;;12.09;100.00;100895.91;10437438;28;20064;-72
2023/08/27 00:32:41;;;;;;;24.27;16.38;;;;;;;12.06;100.00;100890.06;10440732;28;20063;-69
2023/08/27 00:37:41;;;;;;;23.80;14.63;;;;;;;12.03;100.00;100896.09;10439785;28;20049;-72
2023/08/27 00:42:42;;;;;;;23.75;15.30;;;;;;;11.98;100.00;100910.69;10439025;28;20068;-72
2023/08/27 00:47:42;;;;;;;25.50;16.80;;;;;;;11.99;100.00;100922.53;10439061;28;20044;-73
2023/08/27 00:52:43;;;;;;;24.92;15.63;;;;;;;12.04;100.00;100926.19;10418597;28;20041;-72
2023/08/27 00:57:43;;;;;;;28.27;16.80;;;;;;;12.09;100.00;100911.59;10441529;28;20079;-73
2023/08/27 01:02:44;;;;;;;26.48;17.95;;;;;;;12.10;100.00;100903.06;10434384;28;20100;-72
2023/08/27 01:07:58;;;;;;;28.83;17.77;;;;;;;12.08;100.00;100898.91;10439843;28;20053;-74
2023/08/27 01:13:08;;;;;;;23.60;15.60;;;;;;;12.04;100.00;100903.28;10433865;28;20041;-72
2023/08/27 01:18:09;;;;;;;25.30;17.00;;;;;;;11.99;100.00;100903.22;10440610;28;20056;-72
2023/08/27 01:23:09;;;;;;;28.52;17.60;;;;;;;11.97;100.00;100902.66;10438363;28;20037;-73
2023/08/27 01:28:31;;;;;;;24.27;16.02;;;;;;;11.96;100.00;100906.53;10433936;28;20037;-72
2023/08/27 01:33:31;;;;;;;28.38;17.02;;;;;;;11.91;100.00;100888.84;10413135;28;20101;-73
2023/08/27 01:38:32;;;;;;;27.00;17.80;;;;;;;11.90;100.00;100884.41;10420282;28;20065;-73
2023/08/27 01:43:33;;;;;;;26.85;16.52;;;;;;;11.86;100.00;100874.97;10432990;28;20049;-73
2023/08/27 01:48:33;;;;;;;25.63;15.30;;;;;;;11.83;100.00;100858.94;10439235;28;20048;-73
2023/08/27 01:53:34;;;;;;;26.92;16.38;;;;;;;11.74;100.00;100844.00;10432178;28;20523;-73
2023/08/27 01:58:35;;;;;;;27.75;17.00;;;;;;;11.75;100.00;100836.53;10442153;28;20045;-72
2023/08/27 02:03:36;;;;;;;24.63;16.83;;;;;;;11.77;100.00;100834.34;10430115;28;20053;-73
2023/08/27 02:08:36;;;;;;;28.80;17.63;;;;;;;11.75;100.00;100828.25;10431704;28;20140;-73
2023/08/27 02:13:37;;;;;;;28.00;18.77;;;;;;;11.76;100.00;100819.75;10433750;28;20034;-72
2023/08/27 02:18:37;;;;;;;28.92;18.10;;;;;;;11.81;100.00;100833.56;10436749;28;20044;-73
2023/08/27 02:23:37;;;;;;;27.65;17.75;;;;;;;11.95;100.00;100835.88;10447230;28;20069;-72
2023/08/27 02:28:38;;;;;;;27.88;17.08;;;;;;;12.09;100.00;100815.00;10437587;28;20041;-72
2023/08/27 02:33:39;;;;;;;31.35;18.05;;;;;;;12.22;100.00;100811.81;10436929;28;20051;-72
2023/08/27 02:38:41;;;;;;;25.27;17.15;;;;;;;12.32;100.00;100797.25;10436776;28;20057;-73
2023/08/27 02:43:41;;;;;;;27.20;17.17;;;;;;;12.38;100.00;100787.03;10434907;28;20104;-73
2023/08/27 02:48:41;;;;;;;22.30;15.63;;;;;;;12.35;100.00;100793.09;10437788;28;20127;-72
2023/08/27 02:53:42;;;;;;;27.80;17.42;;;;;;;12.29;100.00;100795.81;10432441;28;20038;-72
2023/08/27 02:58:42;;;;;;;26.17;16.33;;;;;;;12.23;100.00;100802.41;10439480;28;20435;-72
2023/08/27 03:03:43;;;;;;;26.80;17.45;;;;;;;12.23;100.00;100801.59;10431205;28;20057;-73
2023/08/27 03:08:43;;;;;;;24.23;16.67;;;;;;;12.27;100.00;100805.47;10432071;28;20068;-74
2023/08/27 03:13:44;;;;;;;26.38;15.57;;;;;;;12.22;100.00;100802.69;10439093;28;20037;-73
2023/08/27 03:18:45;;;;;;;23.38;15.82;;;;;;;12.12;100.00;100800.69;10433928;28;20041;-72
2023/08/27 03:23:46;;;;;;;23.75;14.57;;;;;;;12.03;100.00;100807.78;10441557;28;20076;-71
2023/08/27 03:28:46;;;;;;;23.45;15.43;;;;;;;11.95;100.00;100811.06;10446733;28;20045;-73
2023/08/27 03:33:47;;;;;;;26.48;15.90;;;;;;;11.88;100.00;100812.09;10443261;28;20041;-72
2023/08/27 03:38:47;;;;;;;20.77;14.55;;;;;;;11.82;100.00;100804.84;10439153;28;20037;-73
2023/08/27 03:43:48;;;;;;;21.67;14.35;;;;;;;11.78;100.00;100800.16;10442643;28;20044;-72
2023/08/27 03:48:48;;;;;;;24.00;15.05;;;;;;;11.64;100.00;100777.72;10441333;28;20041;-73
2023/08/27 03:53:49;;;;;;;28.92;15.70;;;;;;;11.67;100.00;100786.28;10441114;28;20052;-72
2023/08/27 03:58:49;;;;;;;24.40;16.67;;;;;;;11.62;100.00;100796.44;10444664;28;20037;-72
2023/08/27 04:03:51;;;;;;;27.27;16.63;;;;;;;11.57;100.00;100794.47;10436950;28;20041;-73
2023/08/27 04:08:52;;;;;;;25.15;15.82;;;;;;;11.55;100.00;100795.81;10443548;28;20132;-72
2023/08/27 04:13:52;;;;;;;27.55;16.17;;;;;;;11.61;100.00;100784.56;10437639;28;20038;-72
2023/08/27 04:18:54;;;;;;;24.95;16.15;;;;;;;11.67;100.00;100782.69;10444682;28;20065;-72
2023/08/27 04:23:55;;;;;;;23.58;15.35;;;;;;;11.74;100.00;100771.44;10429118;28;20042;-71
2023/08/27 04:28:56;;;;;;;27.83;16.88;;;;;;;11.80;100.00;100765.72;10442704;28;20101;-73
2023/08/27 04:33:56;;;;;;;24.38;17.00;;;;;;;11.91;100.00;100752.84;10442322;28;20041;-69
2023/08/27 04:38:57;;;;;;;22.42;16.45;;;;;;;11.97;100.00;100737.13;10439511;28;20088;-73
2023/08/27 04:43:57;;;;;;;24.52;15.27;;;;;;;11.90;100.00;100737.38;10439504;28;20086;-72
2023/08/27 04:48:58;;;;;;;26.67;16.60;;;;;;;11.83;100.00;100726.53;10441487;28;20065;-72
2023/08/27 04:53:58;;;;;;;22.73;14.10;;;;;;;11.81;100.00;100727.91;10436008;28;20037;-71
2023/08/27 04:58:59;;;;;;;24.70;15.15;;;;;;;11.90;100.00;100732.69;10437874;28;20045;-72
2023/08/27 05:03:59;;;;;;;23.30;15.30;;;;;;;12.02;100.00;100734.41;10438693;28;20037;-72
2023/08/27 05:08:59;;;;;;;22.75;15.82;;;;;;;12.18;100.00;100743.63;10431874;28;20097;-72
2023/08/27 05:14:00;;;;;;;22.30;15.40;;;;;;;12.30;100.00;100785.63;10435962;28;20045;-72
2023/08/27 05:19:00;;;;;;;25.40;15.65;;;;;;;12.38;100.00;100775.97;10432301;28;20045;-71
2023/08/27 05:24:01;;;;;;;24.55;14.90;;;;;;;12.45;100.00;100769.13;10442716;28;20139;-70
2023/08/27 05:29:02;;;;;;;22.08;14.88;;;;;;;12.58;100.00;100765.03;10439691;28;20080;-71
2023/08/27 05:34:02;;;;;;;26.17;15.13;;;;;;;12.69;100.00;100763.97;10433767;28;20040;-72
2023/08/27 05:39:03;;;;;;;26.05;14.45;;;;;;;12.79;100.00;100760.41;10438098;28;20100;-72
2023/08/27 05:44:03;;;;;;;23.00;14.35;;;;;;;12.87;100.00;100745.22;10431618;28;20105;-72
2023/08/27 05:49:04;;;;;;;21.50;13.88;;;;;;;12.92;100.00;100746.09;10434190;28;20091;-72
2023/08/27 05:54:04;;;;;;;17.55;12.93;;;;;;;13.00;100.00;100753.00;10438961;28;20038;-73
2023/08/27 05:59:05;;;;;;;19.55;13.20;;;;;;;13.17;100.00;100749.13;10434201;28;20110;-72
2023/08/27 06:04:05;;;;;;;20.45;13.80;;;;;;;13.24;100.00;100749.72;10436411;28;20443;-73
2023/08/27 06:09:06;;;;;;;19.33;12.25;;;;;;;13.20;100.00;100770.72;10432998;28;20040;-73
2023/08/27 06:14:07;;;;;;;20.00;13.18;;;;;;;13.19;100.00;100774.56;10435379;28;20048;-71
2023/08/27 06:19:07;;;;;;;18.55;12.43;;;;;;;13.38;100.00;100766.63;10433339;28;20045;-71
2023/08/27 06:24:08;;;;;;;24.25;13.05;;;;;;;13.70;100.00;100755.25;10439620;28;20060;-71
2023/08/27 06:29:08;;;;;;;17.85;12.25;;;;;;;14.02;100.00;100754.13;10431197;28;20087;-72
2023/08/27 06:34:09;;;;;;;17.60;11.45;;;;;;;14.41;100.00;100745.97;10438789;28;20056;-71
2023/08/27 06:39:09;;;;;;;13.52;10.15;;;;;;;14.60;100.00;100760.03;10433744;28;20029;-72
2023/08/27 06:44:10;;;;;;;11.50;10.00;;;;;;;14.64;100.00;100766.66;10433446;28;20029;-71
2023/08/27 06:49:10;;;;;;;11.82;8.50;;;;;;;14.71;100.00;100761.63;10432764;28;20034;-71
2023/08/27 06:54:11;;;;;;;11.48;8.05;;;;;;;14.66;100.00;100767.22;10442200;28;20038;-71
2023/08/27 06:59:11;;;;;;;9.00;7.10;;;;;;;14.54;100.00;100761.13;10438999;28;20045;-71
2023/08/27 07:04:12;;;;;;;12.18;8.07;;;;;;;14.41;100.00;100757.03;10444334;28;20648;-71
2023/08/27 07:09:12;;;;;;;11.95;9.25;;;;;;;14.28;100.00;100764.03;10433304;28;20041;-71
2023/08/27 07:14:13;;;;;;;14.35;7.35;;;;;;;14.16;100.00;100782.88;10424688;28;20099;-70
2023/08/27 07:19:13;;;;;;;9.57;7.10;;;;;;;14.00;100.00;100784.84;10426435;28;20049;-71
2023/08/27 07:24:13;;;;;;;9.82;7.22;;;;;;;13.87;100.00;100790.94;10431463;28;20065;-70
2023/08/27 07:29:14;;;;;;;8.98;6.68;;;;;;;13.77;100.00;100794.56;10426193;28;20041;-71
2023/08/27 07:34:14;;;;;;;8.77;6.00;;;;;;;13.58;100.00;100785.13;10423278;28;20038;-71
2023/08/27 07:39:15;;;;;;;10.50;5.88;;;;;;;13.46;100.00;100775.19;10426299;28;20034;-72
2023/08/27 07:44:16;;;;;;;8.75;6.32;;;;;;;13.45;100.00;100761.63;10439019;28;20038;-72
2023/08/27 07:49:16;;;;;;;13.23;7.35;;;;;;;13.52;100.00;100751.16;10442263;28;20038;-71
2023/08/27 07:54:17;;;;;;;10.77;6.72;;;;;;;13.70;100.00;100730.38;10438935;28;20037;-72
2023/08/27 07:59:17;;;;;;;10.57;6.55;;;;;;;13.95;100.00;100734.19;10419907;28;20049;-72
2023/08/27 08:04:18;;;;;;;9.00;5.00;;;;;;;14.27;100.00;100754.03;10418038;28;20060;-72
2023/08/27 08:09:18;;;;;;;6.28;4.65;;;;;;;14.56;100.00;100734.00;10411748;28;20048;-69
2023/08/27 08:14:19;;;;;;;4.97;3.45;;;;;;;15.04;100.00;100752.88;10422372;28;20102;-72
2023/08/27 08:19:20;;;;;;;4.20;2.20;;;;;;;15.21;100.00;100738.59;10422152;28;20041;-71
2023/08/27 08:24:20;;;;;;;3.88;1.35;;;;;;;15.31;100.00;100735.75;10420136;28;20089;-71
2023/08/27 08:29:20;;;;;;;1.63;1.02;;;;;;;15.43;100.00;100743.72;10425621;28;20045;-71
2023/08/27 08:34:21;;;;;;;2.03;0.95;;;;;;;15.62;100.00;100743.81;10421811;28;20372;-72
2023/08/27 08:39:23;;;;;;;2.42;0.90;;;;;;;15.72;100.00;100738.19;10413134;28;20049;-71
2023/08/27 08:44:49;;;;;;;2.00;0.90;;;;;;;16.02;100.00;100744.56;10407218;28;20081;-70
2023/08/27 08:49:52;;;;;;;1.65;1.00;;;;;;;16.25;100.00;100732.63;10426512;28;20071;-70
2023/08/27 08:54:53;;;;;;;1.40;0.90;;;;;;;16.16;100.00;100720.50;10427494;28;20048;-71
2023/08/27 08:59:54;;;;;;;1.58;0.85;;;;;;;16.26;100.00;100723.16;10421542;28;20052;-71
2023/08/27 09:04:54;;;;;;;3.03;0.95;;;;;;;16.40;100.00;100728.03;10416986;28;20042;-71
2023/08/27 09:09:55;;;;;;;1.10;0.70;;;;;;;16.34;100.00;100713.34;10411169;28;20041;-71
2023/08/27 09:14:55;;;;;;;2.45;1.00;;;;;;;16.68;100.00;100717.91;10399094;28;20033;-70
2023/08/27 09:19:56;;;;;;;1.85;0.88;;;;;;;17.06;100.00;100724.34;10436246;28;20124;-71
2023/08/27 09:24:56;;;;;;;2.28;0.80;;;;;;;17.37;100.00;100721.06;10435593;28;20064;-71
2023/08/27 09:30:00;;;;;;;1.52;0.90;;;;;;;17.68;100.00;100723.31;10441178;28;20047;-70
2023/08/27 09:35:01;;;;;;;1.48;0.60;;;;;;;17.82;100.00;100721.41;10408495;28;20041;-71
2023/08/27 09:40:05;;;;;;;1.20;0.93;;;;;;;17.97;100.00;100719.50;10439514;28;20485;-71
2023/08/27 09:45:06;;;;;;;2.50;0.98;;;;;;;18.02;100.00;100716.59;10435740;28;20634;-71
2023/08/27 09:50:14;;;;;;;2.38;1.00;;;;;;;18.10;100.00;100705.56;10439813;28;20041;-71
2023/08/27 09:55:14;;;;;;;1.80;0.90;;;;;;;18.05;100.00;100711.22;10452825;28;20137;-71
2023/08/27 10:00:16;;;;;;;1.88;1.25;;;;;;;17.97;100.00;100700.81;10430854;28;20041;-71
2023/08/27 10:05:17;;;;;;;2.65;1.05;;;;;;;18.25;100.00;100698.88;10410670;28;20041;-72
2023/08/27 10:10:18;;;;;;;2.95;1.30;;;;;;;18.66;100.00;100695.16;10433969;28;20029;-71
2023/08/27 10:15:18;;;;;;;4.78;1.67;;;;;;;18.58;100.00;100686.72;10435341;28;20314;-73
2023/08/27 10:20:19;;;;;;;2.53;1.10;;;;;;;19.26;100.00;100696.03;10435725;28;20093;-71
2023/08/27 10:25:20;;;;;;;4.80;0.93;;;;;;;19.25;100.00;100678.47;10428371;28;20374;-71
2023/08/27 10:30:20;;;;;;;2.50;1.10;;;;;;;19.19;100.00;100670.56;10434912;28;20061;-71
2023/08/27 10:35:21;;;;;;;1.90;1.05;;;;;;;19.40;100.00;100679.22;10464689;28;20037;-71
2023/08/27 10:40:21;;;;;;;2.83;1.33;;;;;;;19.59;100.00;100656.66;10423352;28;20383;-72
2023/08/27 10:45:27;;;;;;;4.65;1.60;;;;;;;19.40;100.00;100657.72;10430731;28;20053;-70
2023/08/27 10:50:27;;;;;;;3.40;1.65;;;;;;;18.91;100.00;100653.91;10437125;28;20030;-71
2023/08/27 10:55:35;;;;;;;4.28;1.35;;;;;;;18.86;100.00;100654.06;10438101;28;20405;-71
2023/08/27 11:01:09;;;;;;;2.65;1.50;;;;;;;19.49;100.00;100646.59;10438721;28;20045;-71
2023/08/27 11:06:11;;;;;;;2.45;1.40;;;;;;;20.43;100.00;100629.69;10434655;28;20042;-71
2023/08/27 11:11:12;;;;;;;3.70;1.83;;;;;;;21.27;100.00;100625.56;10434487;28;20064;-71
2023/08/27 11:16:14;;;;;;;2.10;1.10;;;;;;;22.01;100.00;100617.06;10431994;28;20374;-71
2023/08/27 11:21:25;;;;;;;1.52;1.20;;;;;;;22.55;100.00;100594.78;10434512;28;20044;-72
2023/08/27 11:26:26;;;;;;;2.28;1.15;;;;;;;23.27;100.00;100580.59;10415938;28;20037;-72
2023/08/27 11:31:27;;;;;;;3.42;1.35;;;;;;;22.11;100.00;100594.25;10438744;28;20038;-71
2023/08/27 11:36:27;;;;;;;3.03;1.15;;;;;;;20.68;100.00;100600.94;10429762;28;20117;-72
2023/08/27 11:41:36;;;;;;;2.95;1.50;;;;;;;19.56;100.00;100624.63;10444815;28;20112;-71
2023/08/27 11:46:37;;;;;;;3.85;1.98;;;;;;;18.12;100.00;100644.78;10438510;28;20491;-71
2023/08/27 11:51:37;;;;;;;8.88;2.28;;;;;;;16.90;100.00;100608.91;10439905;28;20037;-72
2023/08/27 11:56:38;;;;;;;5.40;1.55;;;;;;;16.10;100.00;100683.66;10444064;28;20037;-71
2023/08/27 12:01:38;;;;;;;6.03;2.03;;;;;;;15.19;100.00;100685.38;10437159;28;20072;-69
2023/08/27 12:06:51;;;;;;;6.05;1.98;;;;;;;14.52;100.00;100685.81;10435594;28;20113;-72
2023/08/27 12:11:52;;;;;;;2.28;2.00;;;;;;;14.26;100.00;100691.47;10436144;28;20100;-71
2023/08/27 12:16:53;;;;;;;3.33;2.45;;;;;;;14.52;100.00;100669.19;10440670;28;20041;-73
2023/08/27 12:21:56;;;;;;;3.50;2.65;;;;;;;14.59;100.00;100644.78;10441890;28;20044;-73
2023/08/27 12:27:07;;;;;;;2.28;1.88;;;;;;;14.90;100.00;100650.97;10439321;28;20045;-74
2023/08/27 12:32:11;;;;;;;2.63;1.35;;;;;;;14.99;100.00;100656.72;10425475;28;20045;-73
2023/08/27 12:37:12;;;;;;;2.67;1.27;;;;;;;14.90;100.00;100647.34;10443543;28;20040;-72
2023/08/27 12:42:14;;;;;;;2.88;1.23;;;;;;;14.61;100.00;100667.47;10441712;28;20037;-73
2023/08/27 12:47:14;;;;;;;1.92;1.48;;;;;;;14.37;100.00;100674.81;10433644;28;20396;-74
2023/08/27 12:52:15;;;;;;;5.43;3.47;;;;;;;14.01;100.00;100702.63;10442467;28;20040;-72
2023/08/27 12:57:15;;;;;;;8.00;3.92;;;;;;;13.78;100.00;100699.38;10435890;28;20107;-73
2023/08/27 13:02:16;;;;;;;11.35;5.40;;;;;;;13.72;100.00;100706.00;10435229;28;20048;-74
2023/08/27 13:07:16;;;;;;;7.50;5.35;;;;;;;13.67;100.00;100697.75;10439908;28;20040;-73
2023/08/27 13:12:17;;;;;;;7.57;5.45;;;;;;;13.80;100.00;100682.50;10436741;28;20530;-74
2023/08/27 13:17:20;;;;;;;9.20;5.97;;;;;;;14.79;100.00;100679.03;10439697;28;20042;-75
2023/08/27 13:22:20;;;;;;;6.88;4.75;;;;;;;15.74;100.00;100686.81;10437123;28;20044;-72
2023/08/27 13:27:22;;;;;;;6.10;4.25;;;;;;;16.70;100.00;100688.72;10437083;28;20055;-71
2023/08/27 13:32:22;;;;;;;5.80;3.67;;;;;;;18.10;100.00;100680.47;10440434;28;20112;-71
2023/08/27 13:37:22;;;;;;;3.83;2.30;;;;;;;19.30;100.00;100685.88;10436468;28;20209;-71
2023/08/27 13:42:24;;;;;;;2.58;1.67;;;;;;;20.40;100.00;100669.47;10437971;28;20040;-71
2023/08/27 13:47:24;;;;;;;2.33;1.40;;;;;;;21.21;100.00;100654.91;10433794;28;20045;-71
2023/08/27 13:52:25;;;;;;;3.85;1.63;;;;;;;21.48;100.00;100658.50;10435576;28;20034;-71
2023/08/27 13:57:25;;;;;;;2.47;1.38;;;;;;;21.43;100.00;100645.47;10433814;28;20048;-70
2023/08/27 14:02:26;;;;;;;2.25;1.67;;;;;;;21.14;100.00;100655.38;10438469;28;20826;-69
2023/08/27 14:07:27;;;;;;;1.65;1.40;;;;;;;20.62;100.00;100669.38;10432926;28;20483;-70
2023/08/27 14:12:28;;;;;;;1.80;1.10;;;;;;;20.36;100.00;100658.97;10433196;28;20481;-70
2023/08/27 14:17:28;;;;;;;1.00;0.85;;;;;;;19.85;100.00;100666.03;10403670;28;20038;-70
2023/08/27 14:22:29;;;;;;;3.30;1.02;;;;;;;19.20;100.00;100647.06;10433058;28;20053;-69
2023/08/27 14:27:30;;;;;;;0.63;0.57;;;;;;;18.46;100.00;100642.66;10433850;28;20041;-69
2023/08/27 14:32:31;;;;;;;1.55;0.75;;;;;;;18.06;100.00;100645.19;10406850;28;20037;-69
2023/08/27 14:37:32;;;;;;;1.30;0.70;;;;;;;17.95;100.00;100653.75;10406244;28;20048;-69
2023/08/27 14:42:33;;;;;;;1.00;0.80;;;;;;;17.83;100.00;100653.44;10411905;28;20620;-69
2023/08/27 14:47:33;;;;;;;0.98;0.60;;;;;;;17.99;100.00;100661.50;10416633;28;20041;-66
2023/08/27 14:52:33;;;;;;;1.42;0.52;;;;;;;18.59;100.00;100672.47;10411682;28;20045;-69
2023/08/27 14:57:34;;;;;;;0.70;0.45;;;;;;;18.47;100.00;100661.03;10406446;28;20046;-69
2023/08/27 15:02:34;;;;;;;1.00;0.50;;;;;;;17.73;100.00;100667.53;10418990;28;20046;-69
2023/08/27 15:07:35;;;;;;;1.33;0.57;;;;;;;17.08;100.00;100660.06;10419045;28;20045;-69
2023/08/27 15:12:36;;;;;;;0.50;0.35;;;;;;;16.72;100.00;100669.78;10417210;28;20038;-69
2023/08/27 15:17:39;;;;;;;1.77;0.70;;;;;;;16.48;100.00;100669.00;10411031;28;20452;-69
2023/08/27 15:22:39;;;;;;;1.10;0.80;;;;;;;16.45;100.00;100664.84;10414648;28;20037;-69
2023/08/27 15:27:40;;;;;;;1.83;0.82;;;;;;;16.43;100.00;100677.41;10422118;28;20092;-68
2023/08/27 15:32:40;;;;;;;0.93;0.60;;;;;;;16.33;100.00;100672.81;10420498;28;20037;-69
2023/08/27 15:37:41;;;;;;;0.88;0.57;;;;;;;16.25;100.00;100677.09;10414395;28;20045;-69
2023/08/27 15:42:42;;;;;;;1.92;0.73;;;;;;;16.28;100.00;100687.59;10413469;28;20155;-68
2023/08/27 15:47:45;;;;;;;2.75;0.93;;;;;;;16.21;100.00;100689.91;10409515;28;20029;-69
2023/08/27 15:52:45;;;;;;;2.90;0.95;;;;;;;16.08;100.00;100691.47;10429824;28;20132;-69
2023/08/27 15:57:46;;;;;;;1.75;1.10;;;;;;;15.97;100.00;100689.09;10423774;28;20049;-68
2023/08/27 16:02:46;;;;;;;3.20;1.63;;;;;;;15.82;100.00;100688.13;10443497;28;20037;-69
2023/08/27 16:07:47;;;;;;;2.35;1.40;;;;;;;15.64;100.00;100694.41;10435066;28;20049;-71
2023/08/27 16:12:49;;;;;;;4.30;1.70;;;;;;;15.49;100.00;100681.50;10420640;28;20048;-71
2023/08/27 16:17:49;;;;;;;2.97;1.85;;;;;;;15.39;100.00;100693.50;10434716;28;20037;-70
2023/08/27 16:22:50;;;;;;;3.65;2.30;;;;;;;15.43;100.00;100694.59;10449070;28;20052;-66
2023/08/27 16:27:50;;;;;;;2.17;1.85;;;;;;;15.46;100.00;100702.34;10437195;28;20044;-71
2023/08/27 16:32:51;;;;;;;4.00;2.40;;;;;;;15.81;100.00;100705.06;10448577;28;20067;-71
2023/08/27 16:37:51;;;;;;;3.38;2.00;;;;;;;16.48;100.00;100692.06;10440808;28;20033;-72
2023/08/27 16:42:52;;;;;;;3.05;2.13;;;;;;;16.98;100.00;100700.00;10438844;28;20033;-72
2023/08/27 16:47:53;;;;;;;4.45;2.40;;;;;;;16.72;100.00;100700.34;10442961;28;20097;-73
2023/08/27 16:52:53;;;;;;;7.38;2.97;;;;;;;16.25;100.00;100693.75;10445059;28;20041;-72
2023/08/27 16:57:54;;;;;;;4.47;2.20;;;;;;;15.99;100.00;100692.41;10440864;28;20069;-70
2023/08/27 17:02:54;;;;;;;3.85;2.50;;;;;;;15.58;100.00;100690.84;10441658;28;20087;-71
2023/08/27 17:07:55;;;;;;;2.58;1.20;;;;;;;15.31;100.00;100691.38;10439341;28;20041;-71
2023/08/27 17:12:55;;;;;;;3.13;1.20;;;;;;;15.14;100.00;100695.38;10439024;28;20034;-73
2023/08/27 17:17:56;;;;;;;1.52;0.98;;;;;;;15.01;100.00;100698.81;10443957;28;20052;-67
2023/08/27 17:22:56;;;;;;;1.98;1.10;;;;;;;14.88;100.00;100710.53;10440362;28;20048;-72
2023/08/27 17:27:57;;;;;;;1.60;1.15;;;;;;;14.87;100.00;100711.69;10442031;28;20037;-70
2023/08/27 17:32:57;;;;;;;1.98;1.35;;;;;;;14.90;100.00;100717.47;10437459;28;20496;-71
2023/08/27 17:37:58;;;;;;;4.55;1.50;;;;;;;15.05;100.00;100724.03;10438147;28;20037;-71
2023/08/27 17:42:58;;;;;;;2.78;1.83;;;;;;;15.09;100.00;100720.41;10439665;28;20894;-71
2023/08/27 17:48:09;;;;;;;2.95;1.60;;;;;;;15.10;100.00;100732.31;10437733;28;20232;-71
2023/08/27 17:53:09;;;;;;;4.10;1.70;;;;;;;14.99;100.00;100739.88;10440725;28;20376;-71
2023/08/27 17:58:09;;;;;;;2.05;1.38;;;;;;;14.79;100.00;100749.13;10443512;28;20064;-70
2023/08/27 18:03:11;;;;;;;5.38;1.52;;;;;;;14.61;100.00;100745.06;10436895;28;20037;-71
2023/08/27 18:08:12;;;;;;;1.65;1.45;;;;;;;14.36;100.00;100754.28;10436781;28;20041;-71
2023/08/27 18:13:12;;;;;;;2.17;1.33;;;;;;;14.25;100.00;100761.78;10435933;28;20618;-71
2023/08/27 18:18:13;;;;;;;2.00;1.70;;;;;;;14.13;100.00;100761.28;10440891;28;20064;-72
2023/08/27 18:23:13;;;;;;;2.60;1.98;;;;;;;13.97;100.00;100751.34;10439145;28;20053;-71
2023/08/27 18:28:14;;;;;;;4.80;1.90;;;;;;;13.88;100.00;100757.44;10438554;28;20114;-70
2023/08/27 18:33:14;;;;;;;3.03;1.98;;;;;;;13.70;100.00;100758.88;10434771;28;20064;-71
2023/08/27 18:38:14;;;;;;;3.30;2.03;;;;;;;13.47;100.00;100767.72;10436189;28;20033;-71
2023/08/27 18:43:15;;;;;;;3.03;2.25;;;;;;;13.40;100.00;100765.25;10435585;28;20044;-70
2023/08/27 18:48:16;;;;;;;2.63;2.10;;;;;;;13.30;100.00;100766.06;10443610;28;20034;-70
2023/08/27 18:53:16;;;;;;;3.58;2.25;;;;;;;13.19;100.00;100782.88;10449464;28;20391;-70
2023/08/27 18:58:17;;;;;;;5.05;3.00;;;;;;;13.05;100.00;100791.69;10444534;28;20040;-70
2023/08/27 19:03:17;;;;;;;4.85;3.40;;;;;;;12.95;100.00;100796.38;10444840;28;20052;-70
2023/08/27 19:08:18;;;;;;;8.88;3.97;;;;;;;12.93;100.00;100804.94;10461546;28;20040;-70
2023/08/27 19:13:18;;;;;;;4.35;3.33;;;;;;;12.89;100.00;100799.09;10446958;28;20076;-69
2023/08/27 19:18:19;;;;;;;3.33;2.65;;;;;;;12.83;100.00;100805.72;10444852;28;20093;-70
2023/08/27 19:23:19;;;;;;;4.63;3.28;;;;;;;12.51;100.00;100757.00;10445801;28;20034;-70
2023/08/27 19:28:19;;;;;;;4.65;2.58;;;;;;;12.78;100.00;100802.94;10446830;28;20121;-69
2023/08/27 19:33:20;;;;;;;3.20;2.47;;;;;;;12.69;100.00;100805.41;10446232;28;20053;-71
2023/08/27 19:38:20;;;;;;;4.25;2.90;;;;;;;12.63;100.00;100800.97;10441488;28;20121;-70
2023/08/27 19:43:21;;;;;;;4.75;2.60;;;;;;;12.54;100.00;100797.03;10446183;28;20029;-70
2023/08/27 19:48:21;;;;;;;5.93;2.58;;;;;;;12.58;100.00;100806.44;10443932;28;20040;-70
2023/08/27 19:53:22;;;;;;;3.47;2.42;;;;;;;12.57;100.00;100813.09;10443002;28;20029;-70
2023/08/27 19:58:23;;;;;;;4.03;2.47;;;;;;;12.54;100.00;100810.03;10436106;28;20044;-70
2023/08/27 20:03:23;;;;;;;2.90;1.88;;;;;;;12.47;100.00;100813.88;10444662;28;20499;-71
2023/08/27 20:08:24;;;;;;;3.30;2.00;;;;;;;12.42;100.00;100813.00;10442302;28;20040;-71
2023/08/27 20:13:25;;;;;;;5.18;1.92;;;;;;;12.40;100.00;100812.44;10445192;28;20046;-70
2023/08/27 20:18:26;;;;;;;5.47;1.77;;;;;;;12.35;100.00;100815.19;10450464;28;20052;-71
2023/08/27 20:23:26;;;;;;;2.78;1.58;;;;;;;12.37;100.00;100808.28;10425079;28;20034;-70
2023/08/27 20:28:27;;;;;;;2.55;1.48;;;;;;;12.35;100.00;100809.66;10448310;28;20049;-70
2023/08/27 20:33:27;;;;;;;4.60;2.05;;;;;;;12.32;100.00;100820.16;10439849;28;20043;-70
2023/08/27 20:38:28;;;;;;;4.97;2.22;;;;;;;12.29;100.00;100817.06;10439169;28;20042;-71
2023/08/27 20:43:28;;;;;;;2.30;1.27;;;;;;;12.26;100.00;100826.72;10435316;28;20113;-69
2023/08/27 20:48:30;;;;;;;3.30;1.33;;;;;;;12.24;100.00;100819.81;10434191;28;20045;-71
2023/08/27 20:53:31;;;;;;;3.55;1.25;;;;;;;12.25;100.00;100816.78;10435717;28;20033;-70
2023/08/27 20:58:32;;;;;;;2.17;1.10;;;;;;;12.22;100.00;100820.09;10439554;28;20033;-71
2023/08/27 21:03:32;;;;;;;3.88;1.52;;;;;;;12.23;100.00;100816.22;10446909;28;20041;-71
2023/08/27 21:08:33;;;;;;;3.08;1.23;;;;;;;12.21;100.00;100825.84;10438484;28;20045;-71
2023/08/27 21:13:34;;;;;;;4.47;1.65;;;;;;;12.23;100.00;100826.44;10421166;28;20041;-68
2023/08/27 21:18:35;;;;;;;2.78;1.27;;;;;;;12.18;100.00;100826.41;10436489;28;20041;-70
2023/08/27 21:23:35;;;;;;;5.15;1.20;;;;;;;12.23;100.00;100829.19;10439634;28;20048;-69
2023/08/27 21:28:36;;;;;;;4.80;1.50;;;;;;;12.21;100.00;100823.94;10436064;28;20432;-70
2023/08/27 21:33:37;;;;;;;4.70;1.58;;;;;;;12.16;100.00;100828.59;10438639;28;20032;-70
2023/08/27 21:38:37;;;;;;;4.47;1.00;;;;;;;12.14;100.00;100836.31;10430278;28;20108;-71
2023/08/27 21:43:38;;;;;;;4.13;1.38;;;;;;;12.08;100.00;100832.69;10434886;28;20041;-72
2023/08/27 21:48:38;;;;;;;3.38;1.23;;;;;;;12.08;100.00;100840.97;10438169;28;20048;-70
2023/08/27 21:53:39;;;;;;;3.45;1.42;;;;;;;12.07;100.00;100848.41;10437353;28;20037;-71
2023/08/27 21:58:39;;;;;;;2.20;1.63;;;;;;;12.05;100.00;100849.75;10435284;28;20037;-71
2023/08/27 22:03:40;;;;;;;1.67;0.90;;;;;;;12.08;100.00;100852.00;10440178;28;20048;-70
2023/08/27 22:08:40;;;;;;;2.47;1.58;;;;;;;12.18;100.00;100865.88;10437592;28;20099;-68
2023/08/27 22:13:41;;;;;;;3.33;1.10;;;;;;;12.22;100.00;100874.47;10433448;28;20051;-71
2023/08/27 22:18:42;;;;;;;2.13;1.20;;;;;;;12.18;100.00;100876.91;10409716;28;20068;-70
2023/08/27 22:23:42;;;;;;;3.83;1.63;;;;;;;12.16;100.00;100884.63;10440843;28;20037;-69
2023/08/27 22:28:43;;;;;;;3.58;1.13;;;;;;;12.10;100.00;100881.00;10439283;28;20053;-70
2023/08/27 22:33:44;;;;;;;2.95;1.30;;;;;;;12.04;100.00;100884.81;10439158;28;20040;-72
2023/08/27 22:38:44;;;;;;;2.20;1.50;;;;;;;12.01;100.00;100892.78;10439577;28;20036;-70